Time;durP1;ratioP1;P1;durP2;ratioP2;P2;SDS_P1;SDS_P2;PMS_P1;PMS_P2;Temp;Humidity;BMP_temperature;BMP_pressure;BME280_temperature;BME280_humidity;BME280_pressure;Samples;Min_cycle;Max_cycle;Signal;HPM_P1;HPM_P2
2022/06/24 00:01:54;;;;;;;;;;;;;;;15.01;100.00;97564.75;10438254;28;20035;-58
2022/06/24 00:06:54;;;;;;;22.92;13.15;;;;;;;15.01;100.00;97537.72;10457693;28;19966;-57
2022/06/24 00:12:04;;;;;;;28.45;14.43;;;;;;;15.15;100.00;97540.88;10427066;28;20059;-58
2022/06/24 00:17:05;;;;;;;31.02;14.65;;;;;;;15.28;100.00;97545.84;10428909;28;20040;-58
2022/06/24 00:22:08;;;;;;;31.02;16.23;;;;;;;15.35;100.00;97553.50;10419731;28;20083;-58
2022/06/24 00:27:19;;;;;;;35.90;16.83;;;;;;;15.39;100.00;97551.69;10430303;28;20742;-58
2022/06/24 00:32:32;;;;;;;32.40;16.25;;;;;;;15.30;100.00;97544.06;10419674;28;20072;-58
2022/06/24 00:37:33;;;;;;;34.92;15.98;;;;;;;15.35;100.00;97563.97;10418584;28;20464;-58
2022/06/24 00:42:35;;;;;;;31.10;16.27;;;;;;;15.32;100.00;97574.50;10400790;28;20036;-58
2022/06/24 00:47:36;;;;;;;21.73;13.80;;;;;;;15.20;100.00;97580.00;10417843;28;20067;-58
2022/06/24 00:52:38;;;;;;;21.17;13.35;;;;;;;15.13;100.00;97571.44;10415806;28;20056;-58
2022/06/24 00:57:39;;;;;;;26.85;12.85;;;;;;;15.26;100.00;97582.47;10430029;28;20060;-58
2022/06/24 01:02:38;;;;;;;27.30;14.65;;;;;;;15.28;100.00;97580.69;10438974;28;20048;-58
2022/06/24 01:07:41;;;;;;;27.73;13.65;;;;;;;15.29;100.00;97579.78;10455329;28;20062;-58
2022/06/24 01:12:40;;;;;;;24.42;13.35;;;;;;;15.15;100.00;97577.47;10456364;28;20048;-58
2022/06/24 01:17:39;;;;;;;34.97;14.90;;;;;;;15.06;100.00;97577.72;10454944;28;20066;-58
2022/06/24 01:22:39;;;;;;;39.75;15.48;;;;;;;15.01;100.00;97574.31;10456767;28;20067;-58
2022/06/24 01:27:39;;;;;;;32.67;15.57;;;;;;;14.99;100.00;97560.41;10438269;28;20067;-58
2022/06/24 01:32:38;;;;;;;33.25;16.20;;;;;;;14.96;100.00;97557.88;10423663;28;20491;-58
2022/06/24 01:37:36;;;;;;;;;;;;;;;14.81;100.00;97556.47;10423186;28;20467;-58
2022/06/24 01:42:35;;;;;;;26.70;13.93;;;;;;;14.85;100.00;97552.00;10423397;28;19908;-58
2022/06/24 01:47:34;;;;;;;;;;;;;;;14.89;100.00;97551.91;10421578;28;20819;-58
2022/06/24 01:52:33;;;;;;;27.10;15.13;;;;;;;14.96;100.00;97545.66;10422687;28;20027;-58
2022/06/24 01:57:32;;;;;;;23.38;14.48;;;;;;;15.04;100.00;97542.91;10431827;28;20031;-58
2022/06/24 02:02:31;;;;;;;;;;;;;;;15.00;100.00;97541.25;10445812;28;20020;-58
2022/06/24 02:07:30;;;;;;;28.50;13.52;;;;;;;14.64;100.00;97551.56;10446755;28;19970;-58
2022/06/24 02:17:46;;;;;;;35.72;12.77;;;;;;;14.13;100.00;97567.34;10472112;28;20407;-58
2022/06/24 02:22:45;;;;;;;45.97;13.38;;;;;;;14.09;100.00;97557.84;10444449;28;20128;-58
2022/06/24 02:27:45;;;;;;;;;;;;;;;14.02;100.00;97553.63;10433392;28;20056;-58
2022/06/24 02:32:43;;;;;;;44.00;13.23;;;;;;;13.84;100.00;97542.59;10420989;28;19967;-58
2022/06/24 02:37:42;;;;;;;29.45;12.50;;;;;;;13.78;100.00;97532.31;10420469;28;20042;-58
2022/06/24 02:42:41;;;;;;;30.83;13.80;;;;;;;13.91;100.00;97533.81;10420634;28;20122;-58
2022/06/24 02:47:40;;;;;;;45.03;14.30;;;;;;;13.93;100.00;97545.06;10419860;28;20124;-58
2022/06/24 02:52:39;;;;;;;;;;;;;;;13.89;100.00;97546.03;10423425;28;20028;-58
2022/06/24 02:57:38;;;;;;;36.53;14.85;;;;;;;14.03;100.00;97539.69;10469426;28;20400;-58
2022/06/24 03:02:37;;;;;;;38.67;14.95;;;;;;;13.82;100.00;97557.44;10481215;28;20095;-58
2022/06/24 03:07:36;;;;;;;40.78;14.25;;;;;;;13.65;100.00;97555.09;10437706;28;20037;-58
2022/06/24 03:12:35;;;;;;;;;;;;;;;13.63;100.00;97564.69;10445725;28;20043;-58
2022/06/24 03:17:34;;;;;;;29.20;13.15;;;;;;;13.79;100.00;97565.31;10471847;28;19965;-58
2022/06/24 03:22:33;;;;;;;44.85;12.27;;;;;;;13.89;100.00;97548.63;10460505;28;20036;-58
2022/06/24 03:27:33;;;;;;;36.70;13.25;;;;;;;13.92;100.00;97558.16;10422252;28;20476;-58
2022/06/24 03:32:33;;;;;;;35.55;13.07;;;;;;;13.99;100.00;97571.06;10422247;28;20073;-58
2022/06/24 03:37:32;;;;;;;33.25;13.20;;;;;;;14.17;100.00;97563.75;10421338;28;20036;-58
2022/06/24 03:42:32;;;;;;;29.45;12.75;;;;;;;14.39;100.00;97552.03;10421333;28;20131;-58
2022/06/24 03:47:31;;;;;;;;;;;;;;;14.55;100.00;97555.22;10441685;28;20455;-58
2022/06/24 03:52:30;;;;;;;27.63;11.57;;;;;;;14.69;100.00;97562.78;10438847;28;20280;-58
2022/06/24 03:57:29;;;;;;;;;;;;;;;14.23;100.00;97566.28;10439439;28;20054;-58
2022/06/24 04:02:28;;;;;;;20.90;9.40;;;;;;;13.92;100.00;97574.66;10475499;28;19943;-58
2022/06/24 04:07:27;;;;;;;;;;;;;;;13.91;100.00;97564.25;10417415;28;20036;-58
2022/06/24 04:12:26;;;;;;;21.23;9.93;;;;;;;13.88;100.00;97567.75;10465116;28;19969;-58
2022/06/24 04:17:25;;;;;;;27.80;9.98;;;;;;;13.90;100.00;97554.69;10415931;28;20050;-58
2022/06/24 04:22:24;;;;;;;17.05;10.05;;;;;;;13.98;100.00;97548.47;10416263;28;20067;-58
2022/06/24 04:27:23;;;;;;;24.13;10.50;;;;;;;14.31;100.00;97567.00;10456939;28;20023;-58
2022/06/24 04:32:22;;;;;;;;;;;;;;;14.28;100.00;97576.63;10458501;28;20048;-58
2022/06/24 04:37:21;;;;;;;23.88;10.13;;;;;;;14.03;100.00;97590.13;10415073;28;19916;-58
2022/06/24 04:42:19;;;;;;;;;;;;;;;13.96;100.00;97597.19;10438176;28;20061;-58
2022/06/24 04:47:19;;;;;;;20.58;11.35;;;;;;;14.41;100.00;97589.41;10435832;28;20290;-58
2022/06/24 04:52:18;;;;;;;20.00;10.90;;;;;;;14.73;100.00;97587.97;10455072;28;20170;-58
2022/06/24 04:57:17;;;;;;;;;;;;;;;14.93;100.00;97592.78;10482636;28;20070;-58
2022/06/24 05:02:15;;;;;;;16.50;9.60;;;;;;;15.03;100.00;97594.28;10374179;28;19913;-58
2022/06/24 05:07:14;;;;;;;;;;;;;;;15.30;100.00;97585.91;10435346;28;20056;-58
2022/06/24 05:12:13;;;;;;;16.30;8.80;;;;;;;15.49;100.00;97584.56;10467285;28;19969;-58
2022/06/24 05:17:12;;;;;;;;;;;;;;;15.57;100.00;97590.47;10454430;28;20058;-57
2022/06/24 05:22:11;;;;;;;12.27;8.50;;;;;;;15.85;100.00;97595.06;10479218;28;19908;-58
2022/06/24 05:27:11;;;;;;;14.23;9.43;;;;;;;15.87;99.34;97619.44;10458754;28;20059;-58
2022/06/24 05:32:10;;;;;;;16.02;10.20;;;;;;;15.84;97.80;97630.00;10456326;28;20110;-58
2022/06/24 05:37:09;;;;;;;12.77;9.10;;;;;;;15.97;97.28;97622.69;10423922;28;20055;-58
2022/06/24 05:42:07;;;;;;;;;;;;;;;16.13;96.98;97594.38;10481078;28;20020;-58
2022/06/24 05:47:06;;;;;;;14.27;10.43;;;;;;;16.48;96.82;97580.34;10438632;28;19990;-58
2022/06/24 05:52:06;;;;;;;15.23;10.25;;;;;;;16.66;96.23;97560.63;10464934;28;20070;-58
2022/06/24 05:57:05;;;;;;;17.17;10.68;;;;;;;16.97;95.31;97583.38;10428316;28;20071;-58
2022/06/24 06:02:06;;;;;;;17.60;11.75;;;;;;;16.95;94.06;97580.78;10424477;28;20125;-58
2022/06/24 06:07:05;;;;;;;14.88;10.75;;;;;;;16.95;93.03;97580.78;10419596;28;20056;-58
2022/06/24 06:12:05;;;;;;;13.80;9.80;;;;;;;16.96;92.34;97586.88;10466901;28;20033;-58
2022/06/24 06:17:04;;;;;;;11.23;7.88;;;;;;;16.96;91.01;97573.78;10485166;28;20796;-58
2022/06/24 06:22:03;;;;;;;11.18;7.53;;;;;;;17.35;89.17;97596.19;10475460;28;20515;-58
2022/06/24 06:27:02;;;;;;;12.65;8.85;;;;;;;17.54;90.75;97595.59;10421678;28;20068;-58
2022/06/24 06:32:02;;;;;;;11.98;8.57;;;;;;;17.86;91.15;97596.38;10474921;28;20066;-58
2022/06/24 06:37:00;;;;;;;13.23;8.13;;;;;;;18.13;87.99;97589.34;10475277;28;20056;-58
2022/06/24 06:41:59;;;;;;;12.23;8.35;;;;;;;18.28;87.15;97572.19;10451011;28;20032;-58
2022/06/24 06:46:58;;;;;;;11.82;7.55;;;;;;;18.56;87.29;97583.44;10441469;28;20111;-58
2022/06/24 06:52:00;;;;;;;14.20;8.05;;;;;;;18.79;85.35;97582.66;10444735;28;20047;-58
2022/06/24 06:56:59;;;;;;;10.02;7.18;;;;;;;18.97;83.57;97588.13;10473962;28;20063;-58
2022/06/24 07:01:59;;;;;;;10.10;6.50;;;;;;;18.99;80.66;97581.91;10478790;28;20059;-58
2022/06/24 07:06:58;;;;;;;8.20;6.20;;;;;;;19.24;81.07;97586.22;10414666;28;20062;-58
2022/06/24 07:11:57;;;;;;;7.93;5.68;;;;;;;19.43;80.33;97574.06;10451049;28;20047;-58
2022/06/24 07:16:56;;;;;;;8.88;5.35;;;;;;;19.64;77.43;97574.16;10457884;28;20707;-58
2022/06/24 07:21:55;;;;;;;8.40;5.43;;;;;;;19.86;77.38;97569.75;10491709;28;20035;-58
2022/06/24 07:26:54;;;;;;;7.50;5.30;;;;;;;19.96;75.79;97570.22;10478889;28;20586;-59
2022/06/24 07:31:53;;;;;;;7.68;5.18;;;;;;;20.25;76.14;97579.50;10457129;28;20055;-58
2022/06/24 07:36:52;;;;;;;5.65;4.25;;;;;;;20.54;74.40;97571.28;10468225;28;20500;-58
2022/06/24 07:41:53;;;;;;;6.88;4.35;;;;;;;20.83;73.86;97570.00;10456769;28;20062;-58
2022/06/24 07:46:52;;;;;;;6.97;4.60;;;;;;;20.92;72.80;97574.84;10451071;28;20063;-58
2022/06/24 07:51:50;;;;;;;7.43;4.50;;;;;;;21.15;72.52;97571.16;10458215;28;20036;-58
2022/06/24 07:56:59;;;;;;;5.65;3.70;;;;;;;21.38;71.80;97558.69;10445575;28;20027;-58
2022/06/24 08:01:59;;;;;;;8.00;4.00;;;;;;;21.54;69.51;97555.22;10445143;28;20133;-58
2022/06/24 08:06:59;;;;;;;6.55;3.90;;;;;;;21.71;70.16;97550.91;10415902;28;20074;-58
2022/06/24 08:11:59;;;;;;;8.60;4.15;;;;;;;21.82;68.71;97555.66;10429558;28;20767;-58
2022/06/24 08:16:58;;;;;;;4.63;3.97;;;;;;;21.92;69.63;97557.78;10457712;28;20068;-58
2022/06/24 08:21:57;;;;;;;6.72;4.03;;;;;;;22.23;69.37;97548.34;10437375;28;20040;-58
2022/06/24 08:26:56;;;;;;;5.65;4.03;;;;;;;22.15;68.09;97545.22;10446164;28;20020;-58
2022/06/24 08:31:55;;;;;;;4.88;3.22;;;;;;;22.23;66.91;97547.47;10427305;28;20540;-58
2022/06/24 08:36:53;;;;;;;6.22;3.70;;;;;;;22.45;65.71;97542.78;10493692;28;20514;-58
2022/06/24 08:41:56;;;;;;;4.05;3.53;;;;;;;22.64;65.44;97537.38;10456736;28;20679;-58
2022/06/24 08:46:55;;;;;;;4.97;3.90;;;;;;;22.85;63.75;97537.19;10497138;28;20669;-58
2022/06/24 08:51:58;;;;;;;6.22;3.95;;;;;;;23.18;62.85;97535.31;10442626;28;20064;-58
2022/06/24 08:56:58;;;;;;;4.70;3.40;;;;;;;23.21;61.89;97547.56;10447094;28;20110;-58
2022/06/24 09:01:56;;;;;;;4.93;3.50;;;;;;;23.32;60.69;97534.56;10478869;28;20070;-58
2022/06/24 09:06:55;;;;;;;3.95;3.30;;;;;;;23.63;60.08;97528.41;10474929;28;20041;-58
2022/06/24 09:11:57;;;;;;;3.33;3.03;;;;;;;23.83;52.46;97519.31;10466199;28;20032;-58
2022/06/24 09:16:56;;;;;;;4.13;3.20;;;;;;;24.09;53.72;97530.16;10456084;28;20091;-58
2022/06/24 09:21:58;;;;;;;5.18;3.10;;;;;;;24.11;54.10;97535.38;10440028;28;20052;-58
2022/06/24 09:27:00;;;;;;;5.38;3.33;;;;;;;24.17;53.44;97542.97;10447167;28;20066;-58
2022/06/24 09:32:08;;;;;;;4.57;3.15;;;;;;;24.20;53.23;97537.53;10442224;28;20510;-58
2022/06/24 09:37:07;;;;;;;2.83;2.20;;;;;;;24.32;48.17;97531.47;10496411;28;20066;-58
2022/06/24 09:42:06;;;;;;;2.72;2.53;;;;;;;24.49;45.80;97533.94;10469507;28;20071;-58
2022/06/24 09:47:06;;;;;;;4.03;3.20;;;;;;;24.64;49.82;97526.03;10496830;28;20084;-58
2022/06/24 09:52:08;;;;;;;6.68;3.45;;;;;;;24.69;49.61;97531.91;10446687;28;20068;-58
2022/06/24 09:57:08;;;;;;;4.95;3.47;;;;;;;24.62;47.58;97534.06;10456233;28;20059;-58
2022/06/24 10:02:14;;;;;;;4.95;2.90;;;;;;;24.77;45.78;97534.91;10459139;28;20436;-58
2022/06/24 10:07:14;;;;;;;3.33;2.70;;;;;;;24.79;44.90;97540.97;10434395;28;20067;-58
2022/06/24 10:12:14;;;;;;;3.80;2.58;;;;;;;24.95;43.31;97545.38;10430163;28;20068;-58
2022/06/24 10:17:15;;;;;;;5.15;2.90;;;;;;;24.89;44.13;97542.16;10462098;28;20071;-58
2022/06/24 10:22:43;;;;;;;4.20;2.80;;;;;;;25.17;43.21;97523.63;10473834;28;20063;-58
2022/06/24 10:27:57;;;;;;;6.53;3.23;;;;;;;25.25;42.51;97526.66;10471720;28;20070;-58
2022/06/24 10:33:12;;;;;;;3.83;2.50;;;;;;;25.47;41.73;97528.75;10460547;28;20076;-58
2022/06/24 10:38:12;;;;;;;3.25;2.70;;;;;;;25.66;42.32;97534.59;10461627;28;20078;-58
2022/06/24 10:43:11;;;;;;;4.28;2.90;;;;;;;26.05;42.90;97526.75;10422403;28;20060;-58
2022/06/24 10:48:10;;;;;;;4.88;2.65;;;;;;;26.43;43.49;97529.47;10420190;28;20115;-58
2022/06/24 10:53:09;;;;;;;4.30;2.80;;;;;;;26.50;43.60;97521.91;10420269;28;20123;-58
2022/06/24 10:58:11;;;;;;;4.97;2.88;;;;;;;26.53;43.00;97521.69;10470847;28;20059;-58
2022/06/24 11:03:11;;;;;;;5.85;2.85;;;;;;;25.96;43.60;97536.19;10486014;28;20052;-58
2022/06/24 11:08:16;;;;;;;3.80;2.78;;;;;;;25.82;44.67;97530.94;10501523;28;20056;-58
2022/06/24 11:13:17;;;;;;;3.40;2.88;;;;;;;25.61;44.99;97534.06;10460375;28;20075;-58
2022/06/24 11:18:25;;;;;;;4.30;3.30;;;;;;;25.67;46.78;97523.03;10459490;28;20103;-58
2022/06/24 11:23:26;;;;;;;4.43;3.10;;;;;;;25.86;45.40;97535.09;10418792;28;20060;-58
2022/06/24 11:28:26;;;;;;;4.40;3.20;;;;;;;26.02;46.41;97530.47;10418392;28;20056;-58
2022/06/24 11:33:25;;;;;;;5.93;3.13;;;;;;;26.05;46.59;97527.59;10418502;28;20079;-59
2022/06/24 11:38:24;;;;;;;6.95;2.92;;;;;;;26.09;44.55;97529.09;10418374;28;20111;-58
2022/06/24 11:43:24;;;;;;;5.88;3.67;;;;;;;26.40;45.21;97527.03;10418811;28;20067;-58
2022/06/24 11:48:24;;;;;;;3.72;3.35;;;;;;;26.69;42.82;97524.13;10417315;28;20060;-58
2022/06/24 11:53:25;;;;;;;5.28;3.40;;;;;;;26.96;41.88;97513.38;10418264;28;20075;-58
2022/06/24 11:58:24;;;;;;;5.90;3.78;;;;;;;26.85;41.87;97511.47;10472201;28;20047;-59
2022/06/24 12:03:24;;;;;;;3.30;3.00;;;;;;;26.98;43.60;97509.66;10446470;28;20051;-58
2022/06/24 12:08:24;;;;;;;6.40;3.58;;;;;;;26.82;42.38;97505.50;10420131;28;20071;-58
2022/06/24 12:13:29;;;;;;;4.13;3.40;;;;;;;26.70;41.95;97505.41;10435625;28;20051;-59
2022/06/24 12:18:29;;;;;;;5.28;3.22;;;;;;;26.57;41.16;97497.41;10416930;28;20068;-58
2022/06/24 12:23:38;;;;;;;3.63;3.10;;;;;;;26.69;40.36;97506.34;10434184;28;20060;-59
2022/06/24 12:28:37;;;;;;;5.07;3.38;;;;;;;26.91;40.23;97505.72;10431946;28;20051;-58
2022/06/24 12:33:52;;;;;;;5.65;3.25;;;;;;;27.04;40.62;97502.19;10415953;28;20094;-58
2022/06/24 12:38:56;;;;;;;5.35;3.88;;;;;;;27.20;40.03;97516.09;10415531;28;20546;-58
2022/06/24 12:44:00;;;;;;;5.25;3.80;;;;;;;27.52;39.34;97515.59;10426855;28;20066;-58
2022/06/24 12:54:16;;;;;;;4.23;3.10;;;;;;;28.22;38.83;97499.63;10415936;28;20096;-58
2022/06/24 12:59:16;;;;;;;4.13;3.17;;;;;;;28.09;38.39;97506.88;10483861;28;20043;-58
2022/06/24 13:04:15;;;;;;;5.78;3.50;;;;;;;28.05;37.91;97503.53;10450552;28;20474;-58
2022/06/24 13:09:14;;;;;;;4.35;3.63;;;;;;;27.97;37.39;97491.78;10498846;28;20360;-58
2022/06/24 13:14:13;;;;;;;3.83;3.45;;;;;;;27.77;37.88;97499.44;10453384;28;20036;-58
2022/06/24 13:19:12;;;;;;;3.97;3.53;;;;;;;27.81;38.24;97492.06;10414756;28;20028;-58
2022/06/24 13:24:11;;;;;;;5.38;3.45;;;;;;;27.83;36.83;97491.00;10412530;28;20036;-58
2022/06/24 13:29:10;;;;;;;6.50;3.15;;;;;;;27.87;36.21;97482.75;10414764;28;20024;-59
2022/06/24 13:34:09;;;;;;;9.48;4.10;;;;;;;27.74;36.29;97473.00;10413979;28;20060;-58
2022/06/24 13:39:08;;;;;;;5.10;3.30;;;;;;;28.11;36.25;97475.59;10415062;28;20028;-58
2022/06/24 13:44:08;;;;;;;5.15;3.40;;;;;;;28.39;35.12;97468.13;10414510;28;20017;-58
2022/06/24 13:49:07;;;;;;;4.20;3.40;;;;;;;28.15;35.17;97465.50;10414482;28;20055;-59
2022/06/24 13:54:06;;;;;;;5.43;3.70;;;;;;;28.23;36.05;97465.78;10421372;28;20094;-58
2022/06/24 13:59:05;;;;;;;3.83;3.40;;;;;;;28.12;35.70;97455.94;10482554;28;20051;-58
2022/06/24 14:04:04;;;;;;;5.90;3.72;;;;;;;28.16;35.66;97460.06;10458830;28;20075;-58
2022/06/24 14:09:04;;;;;;;4.80;3.53;;;;;;;27.94;35.83;97462.66;10455798;28;20040;-58
2022/06/24 14:14:03;;;;;;;4.25;3.28;;;;;;;28.01;36.16;97443.41;10448773;28;20055;-58
2022/06/24 14:19:02;;;;;;;4.53;3.00;;;;;;;28.18;35.18;97430.63;10455860;28;20471;-58
2022/06/24 14:29:18;;;;;;;3.88;3.42;;;;;;;28.20;35.88;97437.53;10414291;28;20499;-58
2022/06/24 14:34:17;;;;;;;8.02;3.53;;;;;;;28.30;35.80;97431.47;10411927;28;20079;-59
2022/06/24 14:44:34;;;;;;;4.65;3.40;;;;;;;28.01;35.27;97426.56;10454205;28;20055;-58
2022/06/24 14:49:35;;;;;;;3.40;3.10;;;;;;;28.12;35.48;97425.75;10462271;28;20426;-58
2022/06/24 14:54:33;;;;;;;4.90;3.28;;;;;;;27.86;36.12;97422.41;10419775;28;20174;-58
2022/06/24 14:59:32;;;;;;;3.97;3.25;;;;;;;27.93;36.32;97432.47;10488519;28;20101;-58
2022/06/24 15:04:31;;;;;;;4.00;3.67;;;;;;;27.85;37.18;97423.38;10461179;28;20016;-58
2022/06/24 15:09:30;;;;;;;5.47;4.00;;;;;;;27.68;36.48;97419.31;10455378;28;20523;-58
2022/06/24 15:14:29;;;;;;;4.18;3.40;;;;;;;27.54;36.21;97383.03;10447412;28;20731;-59
2022/06/24 15:19:28;;;;;;;4.25;3.80;;;;;;;27.69;36.03;97421.03;10451178;28;20566;-58
2022/06/24 15:24:27;;;;;;;4.45;3.42;;;;;;;27.63;36.10;97411.66;10419344;28;20462;-58
2022/06/24 15:29:26;;;;;;;5.10;3.67;;;;;;;27.65;35.96;97406.22;10431405;28;20040;-59
2022/06/24 15:34:25;;;;;;;4.90;3.88;;;;;;;27.76;36.33;97403.59;10425382;28;20123;-58
2022/06/24 15:39:25;;;;;;;5.20;3.55;;;;;;;27.66;36.32;97400.78;10438822;28;20071;-58
2022/06/24 15:44:24;;;;;;;4.40;3.35;;;;;;;27.44;37.74;97401.50;10417145;28;20068;-59
2022/06/24 15:49:23;;;;;;;4.57;3.13;;;;;;;27.32;36.76;97392.63;10449523;28;20020;-58
2022/06/24 15:54:23;;;;;;;4.55;3.47;;;;;;;27.26;37.73;97398.44;10420115;28;20066;-58
2022/06/24 15:59:22;;;;;;;3.75;3.28;;;;;;;26.91;38.07;97399.22;10427638;28;20071;-58
2022/06/24 16:04:21;;;;;;;4.60;3.67;;;;;;;26.86;38.62;97404.03;10458869;28;20036;-58
2022/06/24 16:09:20;;;;;;;4.95;3.40;;;;;;;26.82;38.05;97393.69;10452553;28;20028;-58
2022/06/24 16:14:19;;;;;;;4.82;3.30;;;;;;;26.73;37.75;97395.19;10444133;28;20566;-58
2022/06/24 16:19:18;;;;;;;4.32;3.80;;;;;;;26.82;37.92;97397.19;10452536;28;20411;-58
2022/06/24 16:24:17;;;;;;;4.68;3.53;;;;;;;27.20;38.00;97396.22;10416885;28;20059;-58
2022/06/24 16:29:15;;;;;;;6.20;3.88;;;;;;;27.32;37.55;97400.63;10430549;28;20015;-58
2022/06/24 16:34:15;;;;;;;4.28;3.22;;;;;;;27.33;37.27;97396.13;10479119;28;20060;-58
2022/06/24 16:39:13;;;;;;;4.25;3.85;;;;;;;27.27;37.45;97397.44;10447388;28;20472;-58
2022/06/24 16:44:12;;;;;;;4.75;3.00;;;;;;;27.09;37.42;97401.47;10434736;28;20043;-58
2022/06/24 16:49:11;;;;;;;6.40;3.45;;;;;;;27.03;38.14;97393.97;10415875;28;20020;-58
2022/06/24 16:54:10;;;;;;;6.35;3.50;;;;;;;27.01;39.24;97403.88;10423327;28;20030;-58
2022/06/24 16:59:09;;;;;;;3.58;3.28;;;;;;;26.98;38.67;97403.13;10477145;28;20024;-58
2022/06/24 17:04:08;;;;;;;4.88;3.40;;;;;;;26.94;38.38;97400.81;10452770;28;20387;-58
2022/06/24 17:09:07;;;;;;;6.65;5.20;;;;;;;27.08;41.65;97408.63;10418882;28;20029;-58
2022/06/24 17:14:06;;;;;;;6.05;4.43;;;;;;;26.97;43.94;97406.75;10439845;28;20044;-57
2022/06/24 17:19:05;;;;;;;8.55;5.18;;;;;;;26.74;45.10;97400.38;10455774;28;20067;-58
2022/06/24 17:24:05;;;;;;;8.93;5.13;;;;;;;26.48;45.94;97404.09;10414881;28;20079;-58
2022/06/24 17:29:04;;;;;;;5.82;4.78;;;;;;;26.17;46.31;97409.72;10413510;28;20068;-58
2022/06/24 17:34:03;;;;;;;11.45;5.40;;;;;;;25.80;47.35;97403.44;10414000;28;20028;-58
2022/06/24 17:39:04;;;;;;;10.18;5.78;;;;;;;25.32;47.90;97392.50;10414655;28;20146;-58
2022/06/24 17:44:03;;;;;;;9.65;6.03;;;;;;;25.04;48.11;97393.47;10434621;28;20058;-58
2022/06/24 17:49:02;;;;;;;9.70;6.47;;;;;;;24.73;48.89;97402.50;10497946;28;20059;-58
2022/06/24 17:54:01;;;;;;;8.45;5.00;;;;;;;24.44;49.99;97402.56;10443132;28;20039;-58
2022/06/24 17:59:00;;;;;;;7.30;5.10;;;;;;;24.13;50.65;97398.31;10480665;28;20039;-58
2022/06/24 18:03:59;;;;;;;5.57;4.65;;;;;;;23.80;52.22;97396.75;10456780;28;20024;-58
2022/06/24 18:08:58;;;;;;;8.02;5.35;;;;;;;23.44;53.30;97411.19;10455056;28;20051;-58
2022/06/24 18:13:58;;;;;;;5.85;4.95;;;;;;;23.11;54.53;97409.56;10460604;28;20044;-58
2022/06/24 18:18:59;;;;;;;8.95;5.45;;;;;;;22.79;56.22;97414.03;10463445;28;20466;-58
2022/06/24 18:23:58;;;;;;;9.75;5.80;;;;;;;22.32;57.96;97402.47;10426550;28;20052;-58
2022/06/24 18:28:57;;;;;;;7.90;6.25;;;;;;;22.14;59.23;97416.66;10420690;28;20032;-58
2022/06/24 18:33:57;;;;;;;8.93;5.57;;;;;;;21.85;59.80;97426.94;10420428;28;20127;-58
2022/06/24 18:38:56;;;;;;;9.20;5.53;;;;;;;21.59;61.27;97425.63;10419556;28;20068;-58
2022/06/24 18:43:55;;;;;;;6.75;5.47;;;;;;;21.44;61.38;97435.16;10446943;28;20040;-58
2022/06/24 18:48:54;;;;;;;11.00;5.38;;;;;;;21.30;62.07;97433.22;10459693;28;20063;-58
2022/06/24 18:53:53;;;;;;;8.27;5.72;;;;;;;21.14;62.15;97434.88;10461382;28;20068;-58
2022/06/24 18:58:52;;;;;;;7.75;5.35;;;;;;;20.98;62.77;97434.75;10430772;28;20044;-58
2022/06/24 19:03:51;;;;;;;9.45;5.70;;;;;;;20.87;62.97;97442.34;10450723;28;20020;-58
2022/06/24 19:08:50;;;;;;;8.90;6.07;;;;;;;20.77;63.57;97456.88;10419076;28;20024;-58
2022/06/24 19:13:49;;;;;;;8.45;5.65;;;;;;;20.63;64.48;97466.28;10438898;28;20115;-58
2022/06/24 19:19:07;;;;;;;8.98;6.05;;;;;;;20.49;65.73;97474.84;10419093;28;20063;-58
2022/06/24 19:24:07;;;;;;;7.57;6.10;;;;;;;20.29;66.63;97478.31;10417101;28;20064;-58
2022/06/24 19:29:06;;;;;;;11.50;6.70;;;;;;;20.12;67.93;97467.69;10421048;28;20063;-58
2022/06/24 19:34:05;;;;;;;13.30;7.68;;;;;;;20.01;68.65;97472.56;10418086;28;20068;-58
2022/06/24 19:39:05;;;;;;;9.80;6.60;;;;;;;19.83;69.70;97459.25;10417333;28;20065;-58
2022/06/24 19:44:05;;;;;;;8.50;6.80;;;;;;;19.73;70.26;97472.88;10419021;28;20067;-58
2022/06/24 19:49:04;;;;;;;9.27;6.68;;;;;;;19.61;71.13;97483.00;10451366;28;20078;-58
2022/06/24 19:54:03;;;;;;;9.45;7.18;;;;;;;19.46;72.25;97483.59;10454945;28;20068;-58
2022/06/24 19:59:03;;;;;;;12.02;8.35;;;;;;;19.35;72.82;97491.94;10484162;28;20050;-58
2022/06/24 20:09:20;;;;;;;9.60;7.63;;;;;;;19.13;74.94;97491.94;10457080;28;20063;-58
2022/06/24 20:14:19;;;;;;;10.27;7.68;;;;;;;18.99;76.76;97487.25;10458446;28;20064;-58
2022/06/24 20:19:18;;;;;;;14.10;8.70;;;;;;;18.82;78.57;97482.63;10427199;28;20033;-58
2022/06/24 20:24:20;;;;;;;10.75;9.00;;;;;;;18.48;78.88;97454.13;10415753;28;20075;-58
2022/06/24 20:29:20;;;;;;;14.50;9.30;;;;;;;18.53;80.13;97478.44;10416465;28;20083;-58
2022/06/24 20:34:19;;;;;;;18.40;10.68;;;;;;;18.41;80.65;97473.66;10415785;28;20063;-58
2022/06/24 20:39:18;;;;;;;15.60;11.38;;;;;;;18.36;80.63;97473.84;10414991;28;20036;-58
2022/06/24 20:44:17;;;;;;;16.35;12.68;;;;;;;18.32;80.89;97471.38;10419930;28;20035;-58
2022/06/24 20:49:16;;;;;;;15.75;11.75;;;;;;;18.25;82.20;97468.09;10425614;28;20063;-58
2022/06/24 20:54:15;;;;;;;12.52;8.75;;;;;;;17.95;85.17;97470.91;10450802;28;20047;-58
2022/06/24 20:59:14;;;;;;;10.68;8.50;;;;;;;17.86;84.66;97468.59;10443882;28;20929;-58
2022/06/24 21:04:13;;;;;;;13.15;9.38;;;;;;;17.84;84.76;97466.94;10425873;28;20470;-58
2022/06/24 21:09:13;;;;;;;12.90;9.00;;;;;;;17.77;84.59;97472.38;10436863;28;20099;-58
2022/06/24 21:14:12;;;;;;;11.48;9.45;;;;;;;17.61;85.71;97465.91;10413506;28;20507;-58
2022/06/24 21:19:11;;;;;;;13.32;10.00;;;;;;;17.56;85.42;97466.06;10424910;28;20049;-58
2022/06/24 21:24:10;;;;;;;13.90;10.68;;;;;;;17.52;85.72;97463.63;10411443;28;20031;-58
2022/06/24 21:29:09;;;;;;;;;;;;;;;17.46;85.91;97472.56;10412270;28;20078;-58
2022/06/24 21:34:08;;;;;;;12.83;10.73;;;;;;;17.39;86.38;97476.28;10411751;28;20019;-58
2022/06/24 21:39:07;;;;;;;;;;;;;;;17.33;87.19;97465.97;10413854;28;20043;-58
2022/06/24 21:44:07;;;;;;;15.93;12.33;;;;;;;17.20;87.86;97464.69;10413192;28;19920;-58
2022/06/24 21:49:08;;;;;;;13.88;11.57;;;;;;;17.00;90.10;97478.41;10421566;28;20067;-58
2022/06/24 21:54:07;;;;;;;14.02;11.30;;;;;;;16.86;90.28;97461.38;10425096;28;20064;-58
2022/06/24 21:59:06;;;;;;;14.57;11.80;;;;;;;16.77;90.39;97464.25;10497153;28;20049;-58
2022/06/24 22:04:05;;;;;;;;;;;;;;;16.67;90.22;97444.44;10470078;28;20036;-58
2022/06/24 22:09:04;;;;;;;14.67;9.27;;;;;;;16.62;89.87;97446.34;10464723;28;19912;-58
2022/06/24 22:14:03;;;;;;;15.15;10.27;;;;;;;16.59;89.62;97451.69;10465859;28;20693;-58
2022/06/24 22:19:02;;;;;;;;;;;;;;;16.57;89.39;97462.22;10446829;28;20037;-58
2022/06/24 22:24:00;;;;;;;15.68;10.27;;;;;;;16.57;89.20;97453.50;10424983;28;19916;-58
2022/06/24 22:28:59;;;;;;;;;;;;;;;16.51;89.20;97455.41;10424529;28;20028;-58
2022/06/24 22:33:58;;;;;;;16.30;11.63;;;;;;;16.46;89.69;97452.03;10423934;28;19950;-58
2022/06/24 22:38:57;;;;;;;;;;;;;;;16.34;90.76;97457.63;10423701;28;20043;-58
2022/06/24 22:43:56;;;;;;;12.48;9.43;;;;;;;16.24;91.74;97461.44;10438674;28;20371;-58
2022/06/24 22:48:55;;;;;;;;;;;;;;;16.23;91.54;97467.56;10423849;28;20052;-58
2022/06/24 22:53:55;;;;;;;11.80;10.25;;;;;;;15.91;91.92;97427.44;10419943;28;19980;-58
2022/06/24 22:58:54;;;;;;;14.65;10.68;;;;;;;16.13;91.86;97458.25;10483803;28;20479;-58
2022/06/24 23:03:52;;;;;;;;;;;;;;;16.09;91.50;97450.50;10457512;28;20625;-58
2022/06/24 23:08:51;;;;;;;12.77;10.40;;;;;;;16.06;91.42;97450.56;10444560;28;19951;-58
2022/06/24 23:13:50;;;;;;;;;;;;;;;16.05;91.34;97451.47;10461186;28;20055;-58
2022/06/24 23:18:49;;;;;;;12.37;8.70;;;;;;;15.98;91.02;97454.31;10450499;28;19923;-58
2022/06/24 23:23:48;;;;;;;;;;;;;;;15.94;90.40;97447.44;10420377;28;20107;-58
2022/06/24 23:28:47;;;;;;;11.60;9.30;;;;;;;15.80;90.50;97439.97;10419005;28;19918;-58
2022/06/24 23:33:46;;;;;;;;;;;;;;;15.82;90.85;97451.25;10418153;28;20626;-58
2022/06/24 23:38:44;;;;;;;13.52;10.18;;;;;;;15.81;90.90;97452.13;10418332;28;19923;-58